Strona główna
METAR-TAF:

METAR-TAF

Lotnisko :

Port lotniczy Bergen-Flesland

Bergen, Norwegia

Szerokość geograficzna: 60-17N, Długość geograficzna: 005-14E, wysokość: 5 m

Aktualna obserwacja pogody

Raport powstał 1 godzina i 9 minut temu, godzina 21:50 UTC
Wiatr 4 kt od północ
Temperatura 14°C
Wilgotność 67%
Ciśnienie 1030 hPa
Widzialność 10 km lub więcej
Brak chmur poniżej 1500 m i brak chmur cumulonimbus

METAR: ENBR 302150Z 01004KT CAVOK 14/08 Q1030 RMK WIND 1200FT 02009KT

czas: 00:59 (22:59 UTC)

Prognoza

Prognoza ważna od 30 godzina 18 UTC do 31 godzina 18 UTC
Wiatr 10 kt od północno-północny zachód
Widzialność 10 km lub więcej
Brak chmur poniżej 1500 m i brak chmur cumulonimbus
Stopniowe zmiany
od 30 godzina 21 UTC do 30 godzina 23 UTC
Wiatr 5 kt z kierunków zmiennych
Stopniowe zmiany
od 31 godzina 13 UTC do 31 godzina 16 UTC
Wiatr 10 kt od północno-północny zachód

TAF: ENBR 3018/3118 34010KT CAVOK BECMG 3021/3023 VRB05KT BECMG 3113/3116 34010KT

Obserwacja i prognoza pogody dla ponad 4000 lotnisk (raport METAR i TAF).

Dostępne stacje oznaczono żółtymi i czerwonymi punktami na mapie.

Najedź kursorem aby zobaczyć nazwę stacji.

Kliknij aby zobaczyć obserwacje i prognozy pogody.

Aby zmienić mapę: kliknij na zielony przycisk z czarnym krzyżykiem, aby powiększyć; na zielony przycisk z myślnikiem, aby pomniejszyć; na zielone strzałki, aby przejść do map sąsiednich.


METAR-TAF: